createdAt,value
2022-09-26T00:00:08.334Z,8.1
2022-09-26T00:01:16.883Z,8.1
2022-09-26T00:02:25.394Z,6.6
2022-09-26T00:03:33.739Z,6.6
2022-09-26T00:04:42.128Z,6.6
2022-09-26T00:05:50.731Z,7.8
2022-09-26T00:06:59.133Z,7.8
2022-09-26T00:08:07.650Z,7.8
2022-09-26T00:09:16.143Z,8.1
2022-09-26T00:10:24.541Z,8.1
2022-09-26T00:11:32.947Z,8.1
2022-09-26T00:12:41.600Z,10.1
2022-09-26T00:13:50.013Z,10.1
2022-09-26T00:14:58.401Z,10.1
2022-09-26T00:16:07.026Z,9.2
2022-09-26T00:17:15.414Z,9.2
2022-09-26T00:18:23.832Z,9.2
2022-09-26T00:19:32.436Z,8.1
2022-09-26T00:20:40.870Z,8.1
2022-09-26T00:21:49.331Z,8.1
2022-09-26T00:22:57.912Z,7.8
2022-09-26T00:24:06.338Z,7.8
2022-09-26T00:25:14.714Z,7.8
2022-09-26T00:26:23.338Z,10.4
2022-09-26T00:27:31.721Z,10.4
2022-09-26T00:28:40.113Z,10.4
2022-09-26T00:29:48.722Z,10.9
2022-09-26T00:30:57.207Z,10.9
2022-09-26T00:32:05.504Z,10.9
2022-09-26T00:33:14.101Z,11.1
2022-09-26T00:34:22.469Z,11.1
2022-09-26T00:35:30.911Z,11.1
2022-09-26T00:36:39.522Z,11.3
2022-09-26T00:37:47.967Z,11.3
2022-09-26T00:38:56.351Z,11.3
2022-09-26T00:40:04.995Z,9.4
2022-09-26T00:41:13.390Z,9.4
2022-09-26T00:42:21.774Z,9.4
2022-09-26T00:43:30.382Z,9.7
2022-09-26T00:44:38.773Z,9.7
2022-09-26T00:45:47.243Z,9.7
2022-09-26T00:46:55.857Z,9.1
2022-09-26T00:48:04.246Z,9.1
2022-09-26T00:49:12.743Z,9.1
2022-09-26T00:50:21.325Z,12.5
2022-09-26T00:51:29.706Z,12.5
2022-09-26T00:52:38.130Z,12.5
2022-09-26T00:53:46.702Z,12
2022-09-26T00:54:55.105Z,12
2022-09-26T00:56:03.533Z,12
2022-09-26T00:57:12.159Z,14.1
2022-09-26T00:58:20.513Z,14.1
2022-09-26T00:59:28.962Z,14.1
2022-09-26T01:00:37.651Z,12.9
2022-09-26T01:01:45.990Z,12.9
2022-09-26T01:02:54.374Z,12.9
2022-09-26T01:04:02.962Z,11.7
2022-09-26T01:05:11.419Z,11.7
2022-09-26T01:06:19.801Z,11.7
2022-09-26T01:07:28.383Z,12.5
2022-09-26T01:08:36.822Z,12.5
2022-09-26T01:09:45.202Z,12.5
2022-09-26T01:10:53.819Z,13.4
2022-09-26T01:12:02.220Z,13.4
2022-09-26T01:13:10.601Z,13.4
2022-09-26T01:14:19.225Z,11.3
2022-09-26T01:15:27.622Z,11.3
2022-09-26T01:16:36.060Z,11.3
2022-09-26T01:17:44.612Z,12.2
2022-09-26T01:18:53.005Z,12.2
2022-09-26T01:20:01.381Z,12.2
2022-09-26T01:21:10.005Z,12.3
2022-09-26T01:22:18.392Z,12.3
2022-09-26T01:23:26.783Z,12.3
2022-09-26T01:24:35.401Z,11.2
2022-09-26T01:25:43.782Z,11.2
2022-09-26T01:26:52.195Z,11.2
2022-09-26T01:28:00.812Z,11.3
2022-09-26T01:29:09.249Z,11.3
2022-09-26T01:30:17.622Z,11.3
2022-09-26T01:31:26.263Z,9.7
2022-09-26T01:32:34.627Z,9.7
2022-09-26T01:33:43.053Z,9.7
2022-09-26T01:34:51.675Z,13.6
2022-09-26T01:36:00.175Z,13.6
2022-09-26T01:37:08.528Z,13.6
2022-09-26T01:38:17.179Z,11
2022-09-26T01:39:25.591Z,11
2022-09-26T01:40:34.045Z,11
2022-09-26T01:41:42.598Z,9.8
2022-09-26T01:42:50.981Z,9.8
2022-09-26T01:43:59.443Z,9.8
2022-09-26T01:45:08.002Z,11.8
2022-09-26T01:46:16.460Z,11.8
2022-09-26T01:47:24.835Z,11.8
2022-09-26T01:48:33.455Z,10.5
2022-09-26T01:49:41.871Z,10.5
2022-09-26T01:50:50.262Z,10.5
2022-09-26T01:51:58.855Z,10.9
2022-09-26T01:53:07.265Z,10.9
2022-09-26T01:54:15.650Z,10.9
2022-09-26T01:55:24.261Z,10.6
2022-09-26T01:56:32.686Z,10.6
2022-09-26T01:57:41.056Z,10.6
2022-09-26T01:58:49.686Z,12.1
2022-09-26T01:59:58.120Z,12.1
2022-09-26T02:01:06.609Z,12.1
2022-09-26T02:02:15.239Z,10.3
2022-09-26T02:03:23.677Z,10.3
2022-09-26T02:04:32.048Z,10.3
2022-09-26T02:05:40.695Z,8.7
2022-09-26T02:06:49.076Z,8.7
2022-09-26T02:07:57.475Z,8.7
2022-09-26T02:09:06.166Z,10.6
2022-09-26T02:10:14.487Z,10.6
2022-09-26T02:11:22.889Z,10.6
2022-09-26T02:12:31.493Z,10.9
2022-09-26T02:13:39.963Z,10.9
2022-09-26T02:14:48.365Z,10.9
2022-09-26T02:15:57.061Z,9
2022-09-26T02:17:05.418Z,9
2022-09-26T02:18:13.822Z,9
2022-09-26T02:19:22.447Z,12.1
2022-09-26T02:20:30.886Z,12.1
2022-09-26T02:21:39.259Z,12.1
2022-09-26T02:22:47.885Z,10
2022-09-26T02:23:56.292Z,10
2022-09-26T02:25:04.699Z,10
2022-09-26T02:26:13.290Z,10.7
2022-09-26T02:27:21.688Z,10.7
2022-09-26T02:28:30.078Z,10.7
2022-09-26T02:29:38.673Z,8.7
2022-09-26T02:30:47.078Z,8.7
2022-09-26T02:31:55.551Z,8.7
2022-09-26T02:33:04.106Z,9.1
2022-09-26T02:34:12.492Z,9.1
2022-09-26T02:35:20.881Z,9.1
2022-09-26T02:36:29.503Z,9.1
2022-09-26T02:37:37.892Z,9.1
2022-09-26T02:38:46.309Z,9.1
2022-09-26T02:39:54.916Z,8
2022-09-26T02:41:03.297Z,8
2022-09-26T02:42:11.684Z,8
2022-09-26T02:43:20.316Z,9.6
2022-09-26T02:44:28.691Z,9.6
2022-09-26T02:45:37.210Z,9.6
2022-09-26T02:46:45.770Z,9.1
2022-09-26T02:47:54.233Z,9.1
2022-09-26T02:49:02.622Z,9.1
2022-09-26T02:50:11.213Z,8.3
2022-09-26T02:51:19.601Z,8.3
2022-09-26T02:52:28.015Z,8.3
2022-09-26T02:53:36.626Z,7.6
2022-09-26T02:54:45.031Z,7.6
2022-09-26T02:55:53.560Z,7.6
2022-09-26T02:57:02.145Z,10.3
2022-09-26T02:58:10.544Z,10.3
2022-09-26T02:59:18.912Z,10.3
2022-09-26T03:00:27.513Z,7.1
2022-09-26T03:01:35.959Z,7.1
2022-09-26T03:02:44.291Z,7.1
2022-09-26T03:03:52.936Z,8.8
2022-09-26T03:05:01.379Z,8.8
2022-09-26T03:06:09.702Z,8.8
2022-09-26T03:07:18.308Z,8.2
2022-09-26T03:08:26.739Z,8.2
2022-09-26T03:09:35.199Z,8.2
2022-09-26T03:10:43.780Z,8.8
2022-09-26T03:11:52.181Z,8.8
2022-09-26T03:13:00.604Z,8.8
2022-09-26T03:14:09.205Z,8.6
2022-09-26T03:15:17.593Z,8.6
2022-09-26T03:16:25.976Z,8.6
2022-09-26T03:17:34.596Z,7
2022-09-26T03:18:42.982Z,7
2022-09-26T03:19:51.410Z,7
2022-09-26T03:20:59.977Z,6.8
2022-09-26T03:22:08.377Z,6.8
2022-09-26T03:23:16.876Z,6.8
2022-09-26T03:24:25.453Z,8.6
2022-09-26T03:25:33.843Z,8.6
2022-09-26T03:26:42.242Z,8.6
2022-09-26T03:27:50.859Z,8
2022-09-26T03:28:59.248Z,8
2022-09-26T03:30:07.664Z,8
2022-09-26T03:31:16.292Z,8.9
2022-09-26T03:32:24.651Z,8.9
2022-09-26T03:33:33.040Z,8.9
2022-09-26T03:34:41.658Z,8.9
2022-09-26T03:35:50.197Z,8.9
2022-09-26T03:36:58.571Z,8.9
2022-09-26T03:38:10.189Z,7.5
2022-09-26T03:39:15.778Z,7.5
2022-09-26T03:40:24.031Z,7.5
2022-09-26T03:41:32.590Z,8
2022-09-26T03:42:41.007Z,8
2022-09-26T03:43:49.387Z,8
2022-09-26T03:44:57.984Z,8.3
2022-09-26T03:46:06.476Z,8.3
2022-09-26T03:47:14.792Z,8.3
2022-09-26T03:48:23.402Z,8.9
2022-09-26T03:49:31.781Z,8.9
2022-09-26T03:50:40.168Z,8.9
2022-09-26T03:51:48.827Z,7
2022-09-26T03:52:57.199Z,7
2022-09-26T03:54:05.607Z,7
2022-09-26T03:55:14.200Z,8
2022-09-26T03:56:22.584Z,8
2022-09-26T03:57:30.993Z,8
2022-09-26T03:58:39.629Z,7
2022-09-26T03:59:48.024Z,7
2022-09-26T04:00:56.462Z,7
2022-09-26T04:02:05.082Z,7.9
2022-09-26T04:03:13.527Z,7.9
2022-09-26T04:04:21.901Z,7.9
2022-09-26T04:05:30.484Z,8.3
2022-09-26T04:06:38.982Z,8.3
2022-09-26T04:07:47.405Z,8.3
2022-09-26T04:08:55.987Z,7.2
2022-09-26T04:10:04.395Z,7.2
2022-09-26T04:11:12.786Z,7.2
2022-09-26T04:12:21.409Z,7.8
2022-09-26T04:13:51.648Z,7.8
2022-09-26T04:14:38.229Z,7.8
2022-09-26T04:15:46.822Z,7.5
2022-09-26T04:16:55.228Z,7.5
2022-09-26T04:18:03.636Z,7.5
2022-09-26T04:19:12.291Z,7
2022-09-26T04:20:20.603Z,7
2022-09-26T04:21:28.999Z,7
2022-09-26T04:22:37.632Z,8
2022-09-26T04:23:46.072Z,8
2022-09-26T04:24:54.448Z,8
2022-09-26T04:26:03.053Z,7.4
2022-09-26T04:27:11.473Z,7.4
2022-09-26T04:28:19.905Z,7.4
2022-09-26T04:29:28.512Z,8.3
2022-09-26T04:30:36.907Z,8.3
2022-09-26T04:31:45.370Z,8.3
2022-09-26T04:32:53.952Z,8
2022-09-26T04:34:02.332Z,8
2022-09-26T04:35:10.741Z,8
2022-09-26T04:36:19.337Z,9.6
2022-09-26T04:37:27.785Z,9.6
2022-09-26T04:38:36.200Z,9.6
2022-09-26T04:39:44.846Z,8.1
2022-09-26T04:40:53.287Z,8.1
2022-09-26T04:42:01.644Z,8.1
2022-09-26T04:43:10.241Z,8.8
2022-09-26T04:44:18.641Z,8.8
2022-09-26T04:45:27.085Z,8.8
2022-09-26T04:46:35.680Z,7.8
2022-09-26T04:47:44.042Z,7.8
2022-09-26T04:48:52.438Z,7.8
2022-09-26T04:50:01.063Z,7.8
2022-09-26T04:51:09.459Z,7.8
2022-09-26T04:52:17.868Z,7.8
2022-09-26T04:53:26.494Z,9.5
2022-09-26T04:54:34.869Z,9.5
2022-09-26T04:55:43.295Z,9.5
2022-09-26T04:56:51.929Z,10.7
2022-09-26T04:58:00.292Z,10.7
2022-09-26T04:59:08.746Z,10.7
2022-09-26T05:00:17.346Z,9.9
2022-09-26T05:01:25.825Z,9.9
2022-09-26T05:02:34.264Z,9.9
2022-09-26T05:03:42.801Z,9
2022-09-26T05:04:51.217Z,9
2022-09-26T05:05:59.735Z,9
2022-09-26T05:07:08.311Z,8.5
2022-09-26T05:08:16.790Z,8.5
2022-09-26T05:09:25.155Z,8.5
2022-09-26T05:10:33.781Z,8.6
2022-09-26T05:11:42.269Z,8.6
2022-09-26T05:12:50.618Z,8.6
2022-09-26T05:13:59.229Z,8.9
2022-09-26T05:15:07.673Z,8.9
2022-09-26T05:16:16.059Z,8.9
2022-09-26T05:17:24.652Z,8.1
2022-09-26T05:18:33.048Z,8.1
2022-09-26T05:19:41.466Z,8.1
2022-09-26T05:20:50.109Z,7
2022-09-26T05:21:58.510Z,7
2022-09-26T05:23:06.935Z,7
2022-09-26T05:24:15.608Z,7.5
2022-09-26T05:25:23.994Z,7.5
2022-09-26T05:26:32.445Z,7.5
2022-09-26T05:27:41.057Z,7
2022-09-26T05:28:49.443Z,7
2022-09-26T05:29:57.872Z,7
2022-09-26T05:31:06.511Z,8.6
2022-09-26T05:32:14.913Z,8.6
2022-09-26T05:33:23.290Z,8.6
2022-09-26T05:34:31.901Z,10
2022-09-26T05:35:40.296Z,10
2022-09-26T05:36:48.710Z,10
2022-09-26T05:37:57.327Z,11.5
2022-09-26T05:39:05.809Z,11.5
2022-09-26T05:40:14.175Z,11.5
2022-09-26T05:41:22.755Z,8.3
2022-09-26T05:42:31.166Z,8.3
2022-09-26T05:43:39.648Z,8.3
2022-09-26T05:44:48.217Z,11.8
2022-09-26T05:45:56.649Z,11.8
2022-09-26T05:47:05.131Z,11.8
2022-09-26T05:48:13.691Z,6.2
2022-09-26T05:49:22.101Z,6.2
2022-09-26T05:50:30.483Z,6.2
2022-09-26T05:51:39.109Z,9.5
2022-09-26T05:52:47.524Z,9.5
2022-09-26T05:53:55.939Z,9.5
2022-09-26T05:55:04.559Z,8.5
2022-09-26T05:56:17.739Z,8.5
2022-09-26T05:57:21.377Z,8.5
2022-09-26T05:58:29.992Z,7.7
2022-09-26T05:59:38.390Z,7.7
2022-09-26T06:00:46.866Z,7.7
2022-09-26T06:01:55.519Z,8.7
2022-09-26T06:03:03.832Z,8.7
2022-09-26T06:04:12.245Z,8.7
2022-09-26T06:05:20.858Z,6.6
2022-09-26T06:06:29.274Z,6.6
2022-09-26T06:07:37.680Z,6.6
2022-09-26T06:08:46.275Z,6.7
2022-09-26T06:09:54.698Z,6.7
2022-09-26T06:11:03.116Z,6.7
2022-09-26T06:12:11.743Z,5.5
2022-09-26T06:13:20.189Z,5.5
2022-09-26T06:14:28.569Z,5.5
2022-09-26T06:15:37.361Z,6.1
2022-09-26T06:16:45.688Z,6.1
2022-09-26T06:17:54.052Z,6.1
2022-09-26T06:19:02.670Z,7.5
2022-09-26T06:20:11.040Z,7.5
2022-09-26T06:21:19.462Z,7.5
2022-09-26T06:22:28.032Z,4.9
2022-09-26T06:23:36.441Z,4.9
2022-09-26T06:24:44.843Z,4.9
2022-09-26T06:25:53.430Z,5.1
2022-09-26T06:27:01.860Z,5.1
2022-09-26T06:28:10.284Z,5.1
2022-09-26T06:29:18.893Z,6
2022-09-26T06:30:27.426Z,6
2022-09-26T06:31:35.770Z,6
2022-09-26T06:32:44.274Z,7.4
2022-09-26T06:33:52.696Z,7.4
2022-09-26T06:35:01.114Z,7.4
2022-09-26T06:36:09.715Z,7.6
2022-09-26T06:37:18.114Z,7.6
2022-09-26T06:38:26.527Z,7.6
2022-09-26T06:39:35.138Z,9.2
2022-09-26T06:40:43.586Z,9.2
2022-09-26T06:41:51.934Z,9.2
2022-09-26T06:43:00.548Z,6.6
2022-09-26T06:44:08.940Z,6.6
2022-09-26T06:45:17.383Z,6.6
2022-09-26T06:46:26.060Z,7
2022-09-26T06:47:34.515Z,7
2022-09-26T06:48:42.853Z,7
2022-09-26T06:49:51.452Z,6.7
2022-09-26T06:50:59.864Z,6.7
2022-09-26T06:52:08.273Z,6.7
2022-09-26T06:53:16.887Z,6
2022-09-26T06:54:25.285Z,6
2022-09-26T06:55:33.718Z,6
2022-09-26T06:56:42.358Z,7.8
2022-09-26T06:57:50.772Z,7.8
2022-09-26T06:58:59.159Z,7.8
2022-09-26T07:00:07.779Z,7.3
2022-09-26T07:01:16.249Z,7.3
2022-09-26T07:02:24.665Z,7.3
2022-09-26T07:03:33.234Z,7.3
2022-09-26T07:04:42.131Z,7.3
2022-09-26T07:05:50.547Z,7.3
2022-09-26T07:06:59.177Z,6.4
2022-09-26T07:08:07.564Z,6.4
2022-09-26T07:09:16.253Z,6.4
2022-09-26T07:10:24.689Z,7
2022-09-26T07:11:46.156Z,7
2022-09-26T07:12:41.374Z,7
2022-09-26T07:13:50.000Z,7.9
2022-09-26T07:14:58.391Z,7.9
2022-09-26T07:16:06.846Z,7.9
2022-09-26T07:17:15.424Z,8.9
2022-09-26T07:18:23.820Z,8.9
2022-09-26T07:19:32.261Z,8.9
2022-09-26T07:20:40.856Z,8.5
2022-09-26T07:21:49.268Z,8.5
2022-09-26T07:22:57.682Z,8.5
2022-09-26T07:24:06.311Z,8.3
2022-09-26T07:25:14.688Z,8.3
2022-09-26T07:26:23.097Z,8.3
2022-09-26T07:27:31.714Z,7.6
2022-09-26T07:28:40.110Z,7.6
2022-09-26T07:29:48.529Z,7.6
2022-09-26T07:30:57.152Z,7.8
2022-09-26T07:32:05.561Z,7.8
2022-09-26T07:33:14.005Z,7.8
2022-09-26T07:34:22.632Z,8.2
2022-09-26T07:35:31.061Z,8.2
2022-09-26T07:36:39.487Z,8.2
2022-09-26T07:37:48.092Z,7.4
2022-09-26T07:38:56.544Z,7.4
2022-09-26T07:40:04.933Z,7.4
2022-09-26T07:41:13.560Z,8.2
2022-09-26T07:42:21.952Z,8.2
2022-09-26T07:44:04.379Z,8.2
2022-09-26T07:45:20.789Z,6.5
2022-09-26T07:45:47.393Z,6.5
2022-09-26T07:46:55.918Z,6.5
2022-09-26T07:48:04.446Z,8.1
2022-09-26T07:49:12.850Z,8.1
2022-09-26T07:50:21.266Z,8.1
2022-09-26T07:51:29.917Z,7.4
2022-09-26T07:52:38.314Z,7.4
2022-09-26T07:53:46.737Z,7.4
2022-09-26T07:54:55.355Z,7.1
2022-09-26T07:56:03.747Z,7.1
2022-09-26T07:57:12.144Z,7.1
2022-09-26T07:58:20.777Z,5.6
2022-09-26T07:59:29.158Z,5.6
2022-09-26T08:00:37.581Z,5.6
2022-09-26T08:01:46.227Z,6
2022-09-26T08:02:54.648Z,6
2022-09-26T08:04:03.065Z,6
2022-09-26T08:05:11.666Z,5.8
2022-09-26T08:06:20.034Z,5.8
2022-09-26T08:07:28.462Z,5.8
2022-09-26T08:08:37.109Z,6.8
2022-09-26T08:09:45.498Z,6.8
2022-09-26T08:10:53.917Z,6.8
2022-09-26T08:12:02.548Z,6.4
2022-09-26T08:13:10.973Z,6.4
2022-09-26T08:14:19.366Z,6.4
2022-09-26T08:15:27.965Z,8.6
2022-09-26T08:16:36.429Z,8.6
2022-09-26T08:17:44.821Z,8.6
2022-09-26T08:18:53.456Z,7.2
2022-09-26T08:20:01.890Z,7.2
2022-09-26T08:21:10.288Z,7.2
2022-09-26T08:22:18.901Z,5.8
2022-09-26T08:23:27.342Z,5.8
2022-09-26T08:24:35.734Z,5.8
2022-09-26T08:25:44.355Z,8.4
2022-09-26T08:26:52.753Z,8.4
2022-09-26T08:28:01.145Z,8.4
2022-09-26T08:29:09.766Z,6.3
2022-09-26T08:30:18.149Z,6.3
2022-09-26T08:31:26.653Z,6.3
2022-09-26T08:32:35.160Z,6
2022-09-26T08:33:43.547Z,6
2022-09-26T08:34:51.963Z,6
2022-09-26T08:36:00.553Z,6.5
2022-09-26T08:37:08.978Z,6.5
2022-09-26T08:38:17.448Z,6.5
2022-09-26T08:39:29.013Z,6.6
2022-09-26T08:40:34.475Z,6.6
2022-09-26T08:41:42.837Z,6.6
2022-09-26T08:42:51.457Z,6.8
2022-09-26T08:43:59.863Z,6.8
2022-09-26T08:45:08.269Z,6.8
2022-09-26T08:46:16.951Z,8.6
2022-09-26T08:47:25.297Z,8.6
2022-09-26T08:48:33.736Z,8.6
2022-09-26T08:49:42.346Z,4.8
2022-09-26T08:50:50.726Z,4.8
2022-09-26T08:51:59.136Z,4.8
2022-09-26T08:53:07.757Z,5.1
2022-09-26T08:54:16.269Z,5.1
2022-09-26T08:55:24.601Z,5.1
2022-09-26T08:56:33.169Z,7
2022-09-26T08:57:41.796Z,7
2022-09-26T08:58:50.277Z,7
2022-09-26T08:59:58.857Z,7.7
2022-09-26T09:01:07.257Z,7.7
2022-09-26T09:02:15.822Z,7.7
2022-09-26T09:03:24.369Z,7.8
2022-09-26T09:04:32.772Z,7.8
2022-09-26T09:05:41.207Z,7.8
2022-09-26T09:06:49.771Z,6.2
2022-09-26T09:07:58.199Z,6.2
2022-09-26T09:09:06.624Z,6.2
2022-09-26T09:10:15.211Z,8.4
2022-09-26T09:11:23.618Z,8.4
2022-09-26T09:12:32.461Z,8.4
2022-09-26T09:13:40.657Z,8.3
2022-09-26T09:15:02.565Z,8.3
2022-09-26T09:15:57.586Z,8.3
2022-09-26T09:17:06.094Z,5.8
2022-09-26T09:18:14.517Z,5.8
2022-09-26T09:19:22.945Z,5.8
2022-09-26T09:20:31.543Z,7.3
2022-09-26T09:21:41.912Z,7.3
2022-09-26T09:22:48.399Z,7.3
2022-09-26T09:23:56.994Z,6.2
2022-09-26T09:25:05.396Z,6.2
2022-09-26T09:28:30.828Z,5.7
2022-09-26T09:29:39.207Z,5.7
2022-09-26T09:30:47.819Z,6.2
2022-09-26T09:31:56.210Z,6.2
2022-09-26T09:33:04.620Z,6.2
2022-09-26T09:34:13.366Z,7.8
2022-09-26T09:35:21.684Z,7.8
2022-09-26T09:36:30.064Z,7.8
2022-09-26T09:37:38.683Z,6
2022-09-26T09:38:47.093Z,6
2022-09-26T09:39:55.474Z,6
2022-09-26T09:41:04.137Z,5.9
2022-09-26T09:42:12.507Z,5.9
2022-09-26T09:43:20.959Z,5.9
2022-09-26T09:44:29.529Z,6.2
2022-09-26T09:45:37.939Z,6.2
2022-09-26T09:46:46.394Z,6.2
2022-09-26T09:47:54.949Z,7
2022-09-26T09:49:03.355Z,7
2022-09-26T09:50:11.739Z,7
2022-09-26T09:51:20.352Z,9.3
2022-09-26T09:52:28.767Z,9.3
2022-09-26T09:53:37.174Z,9.3
2022-09-26T09:54:45.786Z,6.9
2022-09-26T09:55:54.188Z,6.9
2022-09-26T09:57:02.603Z,6.9
2022-09-26T09:58:11.240Z,5.8
2022-09-26T09:59:19.696Z,5.8
2022-09-26T10:00:28.037Z,5.8
2022-09-26T10:01:36.671Z,6.4
2022-09-26T10:02:45.071Z,6.4
2022-09-26T10:03:53.371Z,6.4
2022-09-26T10:05:01.941Z,5.9
2022-09-26T10:06:13.543Z,5.9
2022-09-26T10:07:18.692Z,5.9
2022-09-26T10:08:27.306Z,5.8
2022-09-26T10:09:39.697Z,5.8
2022-09-26T10:10:44.120Z,5.8
2022-09-26T10:11:52.803Z,6.9
2022-09-26T10:13:01.278Z,6.9
2022-09-26T10:14:09.785Z,6.9
2022-09-26T10:15:18.439Z,7.9
2022-09-26T10:16:26.910Z,7.9
2022-09-26T10:17:35.155Z,7.9
2022-09-26T10:18:43.745Z,5.4
2022-09-26T10:19:52.153Z,5.4
2022-09-26T10:21:00.581Z,5.4
2022-09-26T10:22:09.189Z,6.5
2022-09-26T10:23:17.582Z,6.5
2022-09-26T10:24:25.998Z,6.5
2022-09-26T10:25:34.639Z,5.3
2022-09-26T10:26:43.034Z,5.3
2022-09-26T10:27:51.448Z,5.3
2022-09-26T10:29:00.096Z,10.1
2022-09-26T10:30:08.484Z,10.1
2022-09-26T10:31:17.024Z,10.1
2022-09-26T10:32:25.512Z,6.6
2022-09-26T10:33:33.933Z,6.6
2022-09-26T10:34:42.383Z,6.6
2022-09-26T10:35:50.980Z,6.7
2022-09-26T10:36:59.648Z,6.7
2022-09-26T10:38:08.082Z,6.7
2022-09-26T10:39:16.679Z,5.8
2022-09-26T10:40:25.133Z,5.8
2022-09-26T10:41:33.510Z,5.8
2022-09-26T10:42:42.121Z,5.3
2022-09-26T10:43:50.505Z,5.3
2022-09-26T10:44:58.890Z,5.3
2022-09-26T10:46:07.529Z,4.7
2022-09-26T10:47:15.956Z,4.7
2022-09-26T10:48:24.332Z,4.7
2022-09-26T10:49:32.940Z,5
2022-09-26T10:50:41.349Z,5
2022-09-26T10:51:49.774Z,5
2022-09-26T10:52:58.386Z,5.3
2022-09-26T10:54:06.842Z,5.3
2022-09-26T10:55:15.249Z,5.3
2022-09-26T10:56:23.861Z,5.1
2022-09-26T10:57:32.282Z,5.1
2022-09-26T10:58:40.681Z,5.1
2022-09-26T10:59:49.500Z,5.7
2022-09-26T11:00:59.094Z,5.7
2022-09-26T11:02:08.294Z,5.7
2022-09-26T11:03:17.180Z,3.7
2022-09-26T11:04:25.570Z,3.7
2022-09-26T11:05:33.982Z,3.7
2022-09-26T11:06:42.616Z,3.4
2022-09-26T11:07:51.012Z,3.4
2022-09-26T11:08:59.392Z,3.4
2022-09-26T11:10:08.017Z,5
2022-09-26T11:11:16.444Z,5
2022-09-26T11:12:24.831Z,5
2022-09-26T11:13:33.441Z,4.4
2022-09-26T11:14:41.846Z,4.4
2022-09-26T11:15:50.394Z,4.4
2022-09-26T11:16:58.925Z,4.8
2022-09-26T11:18:07.337Z,4.8
2022-09-26T11:19:15.836Z,4.8
2022-09-26T11:20:24.333Z,4.3
2022-09-26T11:21:32.849Z,4.3
2022-09-26T11:22:41.187Z,4.3
2022-09-26T11:23:49.801Z,4.7
2022-09-26T11:24:58.207Z,4.7
2022-09-26T11:26:06.615Z,4.7
2022-09-26T11:27:15.241Z,4.3
2022-09-26T11:28:23.773Z,4.3
2022-09-26T11:29:32.117Z,4.3
2022-09-26T11:30:40.782Z,3.8
2022-09-26T11:31:49.170Z,3.8
2022-09-26T11:32:57.632Z,3.8
2022-09-26T11:34:06.258Z,4.8
2022-09-26T11:35:14.652Z,4.8
2022-09-26T11:36:23.098Z,4.8
2022-09-26T11:37:31.758Z,6.5
2022-09-26T11:38:40.119Z,6.5
2022-09-26T11:39:48.518Z,6.5
2022-09-26T11:40:57.184Z,4.2
2022-09-26T11:42:05.547Z,4.2
2022-09-26T11:43:13.969Z,4.2
2022-09-26T11:44:22.662Z,4.5
2022-09-26T11:45:33.717Z,4.5
2022-09-26T11:46:39.492Z,4.5
2022-09-26T11:47:48.097Z,3.5
2022-09-26T11:48:56.527Z,3.5
2022-09-26T11:50:04.923Z,3.5
2022-09-26T11:51:13.543Z,3.7
2022-09-26T11:52:21.965Z,3.7
2022-09-26T11:53:30.370Z,3.7
2022-09-26T11:54:38.957Z,3.5
2022-09-26T11:55:47.398Z,3.5
2022-09-26T11:56:55.777Z,3.5
2022-09-26T11:58:04.381Z,4.5
2022-09-26T11:59:12.810Z,4.5
2022-09-26T12:00:21.229Z,4.5
2022-09-26T12:01:29.871Z,4.1
2022-09-26T12:02:38.403Z,4.1
2022-09-26T12:03:46.810Z,4.1
2022-09-26T12:04:55.304Z,3.8
2022-09-26T12:06:04.347Z,3.8
2022-09-26T12:07:12.798Z,3.8
2022-09-26T12:08:21.396Z,4
2022-09-26T12:09:29.807Z,4
2022-09-26T12:10:38.214Z,4
2022-09-26T12:11:46.850Z,7.3
2022-09-26T12:12:55.265Z,7.3
2022-09-26T12:14:03.676Z,7.3
2022-09-26T12:15:12.275Z,4.8
2022-09-26T12:16:20.824Z,4.8
2022-09-26T12:17:29.117Z,4.8
2022-09-26T12:18:37.757Z,5.4
2022-09-26T12:19:46.163Z,5.4
2022-09-26T12:20:54.565Z,5.4
2022-09-26T12:22:03.206Z,5.3
2022-09-26T12:23:11.616Z,5.3
2022-09-26T12:24:20.000Z,5.3
2022-09-26T12:25:28.635Z,4.3
2022-09-26T12:26:37.044Z,4.3
2022-09-26T12:27:45.435Z,4.3
2022-09-26T12:28:54.079Z,4
2022-09-26T12:30:02.481Z,4
2022-09-26T12:31:10.971Z,4
2022-09-26T12:32:19.552Z,4.5
2022-09-26T12:33:27.940Z,4.5
2022-09-26T12:34:36.407Z,4.5
2022-09-26T12:35:45.048Z,4
2022-09-26T12:36:53.462Z,4
2022-09-26T12:38:01.869Z,4
2022-09-26T12:39:10.522Z,6.4
2022-09-26T12:40:18.935Z,6.4
2022-09-26T12:41:27.299Z,6.4
2022-09-26T12:42:35.941Z,5.5
2022-09-26T12:43:44.326Z,5.5
2022-09-26T12:44:52.741Z,5.5
2022-09-26T12:46:01.484Z,4.7
2022-09-26T12:47:09.808Z,4.7
2022-09-26T12:48:18.178Z,4.7
2022-09-26T12:49:26.806Z,5.1
2022-09-26T12:50:35.233Z,5.1
2022-09-26T12:51:43.652Z,5.1
2022-09-26T12:52:52.274Z,4.4
2022-09-26T12:54:00.716Z,4.4
2022-09-26T12:55:09.143Z,4.4
2022-09-26T12:56:17.736Z,6.1
2022-09-26T12:57:26.237Z,6.1
2022-09-26T12:58:34.588Z,6.1
2022-09-26T12:59:43.196Z,5.7
2022-09-26T13:00:51.623Z,5.7
2022-09-26T13:02:00.128Z,5.7
2022-09-26T13:03:08.799Z,5.1
2022-09-26T13:04:17.119Z,5.1
2022-09-26T13:05:25.519Z,5.1
2022-09-26T13:06:34.182Z,5.7
2022-09-26T13:07:42.603Z,5.7
2022-09-26T13:08:51.022Z,5.7
2022-09-26T13:09:59.654Z,4.1
2022-09-26T13:11:08.162Z,4.1
2022-09-26T13:12:16.506Z,4.1
2022-09-26T13:13:25.126Z,4.7
2022-09-26T13:14:33.555Z,4.7
2022-09-26T13:15:41.978Z,4.7
2022-09-26T13:16:50.572Z,5.4
2022-09-26T13:17:59.025Z,5.4
2022-09-26T13:19:07.480Z,5.4
2022-09-26T13:20:16.071Z,5.3
2022-09-26T13:21:24.480Z,5.3
2022-09-26T13:22:32.956Z,5.3
2022-09-26T13:23:41.548Z,4.9
2022-09-26T13:24:49.979Z,4.9
2022-09-26T13:25:58.392Z,4.9
2022-09-26T13:27:07.751Z,5.2
2022-09-26T13:28:16.134Z,5.2
2022-09-26T13:29:24.866Z,5.2
2022-09-26T13:30:33.205Z,4.9
2022-09-26T13:31:41.676Z,4.9
2022-09-26T13:32:50.054Z,4.9
2022-09-26T13:33:58.677Z,5.2
2022-09-26T13:35:07.125Z,5.2
2022-09-26T13:36:15.553Z,5.2
2022-09-26T13:37:24.210Z,5.2
2022-09-26T13:38:32.640Z,5.2
2022-09-26T13:39:41.057Z,5.2
2022-09-26T13:40:49.750Z,4.3
2022-09-26T13:41:58.101Z,4.3
2022-09-26T13:43:06.550Z,4.3
2022-09-26T13:44:15.306Z,5.6
2022-09-26T13:45:23.607Z,5.6
2022-09-26T13:46:32.145Z,5.6
2022-09-26T13:47:40.682Z,4.4
2022-09-26T13:48:49.091Z,4.4
2022-09-26T13:49:57.526Z,4.4
2022-09-26T13:51:06.175Z,7
2022-09-26T13:52:14.609Z,7
2022-09-26T13:53:23.014Z,7
2022-09-26T13:54:31.648Z,4.4
2022-09-26T13:55:40.081Z,4.4
2022-09-26T13:56:48.491Z,4.4
2022-09-26T13:57:57.109Z,4.6
2022-09-26T13:59:05.585Z,4.6
2022-09-26T14:00:13.962Z,4.6
2022-09-26T14:01:22.630Z,2.3
2022-09-26T14:02:31.085Z,2.3
2022-09-26T14:03:39.472Z,2.3
2022-09-26T14:04:48.086Z,3.6
2022-09-26T14:05:56.503Z,3.6
2022-09-26T14:07:04.965Z,3.6
2022-09-26T14:08:13.561Z,3.2
2022-09-26T14:09:21.996Z,3.2
2022-09-26T14:10:30.427Z,3.2
2022-09-26T14:11:39.023Z,2.1
2022-09-26T14:12:47.465Z,2.1
2022-09-26T14:13:55.879Z,2.1
2022-09-26T14:15:04.519Z,2.5
2022-09-26T14:16:13.045Z,2.5
2022-09-26T14:17:21.364Z,2.5
2022-09-26T14:18:29.999Z,4.4
2022-09-26T14:19:38.405Z,4.4
2022-09-26T14:20:46.794Z,4.4
2022-09-26T14:21:55.431Z,3.2
2022-09-26T14:23:03.856Z,3.2
2022-09-26T14:24:12.305Z,3.2
2022-09-26T14:25:20.923Z,3.3
2022-09-26T14:26:29.332Z,3.3
2022-09-26T14:27:37.767Z,3.3
2022-09-26T14:28:46.446Z,3.1
2022-09-26T14:29:54.853Z,3.1
2022-09-26T15:03:17.964Z,0
2022-09-26T15:04:26.243Z,0
2022-09-26T15:05:34.674Z,0
2022-09-26T15:06:43.371Z,3.2
2022-09-26T15:07:51.764Z,3.2
2022-09-26T15:09:00.194Z,3.2
2022-09-26T15:10:08.795Z,2.7
2022-09-26T15:11:17.199Z,2.7
2022-09-26T15:12:25.793Z,2.7
2022-09-26T15:13:34.396Z,4.8
2022-09-26T15:14:42.814Z,4.8
2022-09-26T15:15:51.240Z,4.8
2022-09-26T15:17:00.092Z,3.6
2022-09-26T15:18:08.523Z,3.6
2022-09-26T15:19:16.956Z,3.6
2022-09-26T15:20:25.529Z,3.5
2022-09-26T15:21:33.952Z,3.5
2022-09-26T15:22:42.342Z,3.5
2022-09-26T15:23:51.003Z,82.300003
2022-09-26T15:24:59.374Z,82.300003
2022-09-26T15:26:07.763Z,82.300003
2022-09-26T15:27:16.381Z,10.9
2022-09-26T15:28:24.782Z,10.9
2022-09-26T15:29:33.239Z,10.9
2022-09-26T15:30:41.925Z,67.400002
2022-09-26T15:31:50.244Z,67.400002
2022-09-26T15:32:58.630Z,67.400002
2022-09-26T15:34:07.346Z,2.7
2022-09-26T15:35:15.757Z,2.7
2022-09-26T15:36:24.101Z,2.7
2022-09-26T15:37:32.736Z,2.4
2022-09-26T15:38:45.069Z,2.4
2022-09-26T15:39:49.576Z,2.4
2022-09-26T15:40:58.207Z,2.1
2022-09-26T15:42:06.610Z,2.1
2022-09-26T15:43:15.019Z,2.1
2022-09-26T15:44:23.672Z,5
2022-09-26T15:45:32.075Z,5
2022-09-26T15:46:40.554Z,5
2022-09-26T15:47:49.126Z,6.8
2022-09-26T15:48:57.572Z,6.8
2022-09-26T15:50:05.979Z,6.8
2022-09-26T15:51:14.637Z,9.2
2022-09-26T15:52:23.046Z,9.2
2022-09-26T15:53:31.449Z,9.2
2022-09-26T15:54:40.062Z,16.200001
2022-09-26T15:55:48.548Z,16.200001
2022-09-26T15:56:56.964Z,16.200001
2022-09-26T15:58:05.600Z,43.5
2022-09-26T15:59:14.015Z,43.5
2022-09-26T16:00:22.395Z,43.5
2022-09-26T16:01:31.097Z,28.5
2022-09-26T16:02:39.504Z,28.5
2022-09-26T16:03:47.886Z,28.5
2022-09-26T16:04:56.462Z,7.7
2022-09-26T16:06:04.890Z,7.7
2022-09-26T16:07:13.405Z,7.7
2022-09-26T16:08:21.939Z,20.299999
2022-09-26T16:09:30.399Z,20.299999
2022-09-26T16:10:38.783Z,20.299999
2022-09-26T16:11:47.434Z,6.7
2022-09-26T16:12:55.831Z,6.7
2022-09-26T16:14:04.217Z,6.7
2022-09-26T16:15:12.851Z,30.9
2022-09-26T16:16:21.330Z,30.9
2022-09-26T16:17:29.707Z,30.9